Leonie — PHLE — position and weather

sailwx.info

Track history (hours):
 
Tides and Currents Weather Stations Pressure Air Temp Water Temp Dewpoint Dewpoint Depression Visibility Wind Speed Wind Dir Waves Ship Positions

Leonie

Last reported at 2014-Aug-21 03:21 UTC. Time now 2014-Aug-22 09:54 UTC.
Position N 39°09' W 009°50'.

Length 90 m; draft 5.4 m.

Type: Cargo ship. MMSI: 244772000.

Date/timePositionNaut miles runAvg speedWind from/ knotsBaromVisibWave heightAir tempDewpointWater temp
2014-Aug-21 03:21N 39°09' W 009°50'119 9.9
2014-Aug-20 15:25N 37°12' W 009°23'9 9.8
2014-Aug-20 14:31N 37°03' W 009°21'1010.0
2014-Aug-20 13:33N 36°54' W 009°18'10 9.8
2014-Aug-20 12:33N 36°46' W 009°10'1010.1
2014-Aug-20 11:33N 36°42' W 008°58'1010.2
2014-Aug-20 10:33N 36°39' W 008°46'1010.4
2014-Aug-20 09:33N 36°36' W 008°34'1010.2
2014-Aug-20 08:33N 36°33' W 008°22'1110.2
2014-Aug-20 07:28N 36°29' W 008°09'13910.0
2014-Aug-19 17:32N 35°60' W 005°20'6 6.3
2014-Aug-19 16:33N 35°54' W 005°18'0 0.0
2014-Aug-19 15:33N 35°54' W 005°18'0 0.0
2014-Aug-19 14:30N 35°54' W 005°18'1 1.3
2014-Aug-19 13:31N 35°55' W 005°19'0 0.1
2014-Aug-19 12:33N 35°55' W 005°19'0 0.4
2014-Aug-19 11:33N 35°55' W 005°20'0 0.0
2014-Aug-19 10:33N 35°55' W 005°20'0 0.4
2014-Aug-19 09:33N 35°55' W 005°19'20310.0
2014-Aug-18 13:19N 36°26' W 001°11'1111.0
2014-Aug-18 12:18N 36°29' W 000°57'29 9.7
2014-Aug-18 09:18N 36°35' W 000°22'7 9.4
2014-Aug-18 08:32N 36°36' W 000°13'19 9.5
2014-Aug-18 06:30N 36°40' E 000°11'46210.6
2014-Aug-16 11:04N 37°34' E 009°46'510.0
2014-Aug-16 10:34N 37°35' E 009°52'10 9.6
2014-Aug-16 09:29N 37°38' E 010°05'12 9.3
2014-Aug-16 08:13N 37°37' E 010°20'5 7.1
2014-Aug-16 07:34N 37°36' E 010°25'1110.7
2014-Aug-16 06:34N 37°33' E 010°38'10810.7
2014-Aug-15 20:28N 36°58' E 012°46'1010.7
2014-Aug-15 19:34N 36°55' E 012°58'1110.5
2014-Aug-15 18:34N 36°51' E 013°11'1010.4
2014-Aug-15 17:34N 36°48' E 013°23'1110.5
2014-Aug-15 16:34N 36°44' E 013°35'1010.2
2014-Aug-15 15:34N 36°41' E 013°47'1510.3
2014-Aug-15 14:05N 36°37' E 014°05'510.1
2014-Aug-15 13:34N 36°35' E 014°12'1010.3
2014-Aug-15 12:34N 36°32' E 014°24'1010.2
2014-Aug-15 11:34N 36°29' E 014°36'1010.5
2014-Aug-15 10:34N 36°28' E 014°49'1210.7
2014-Aug-15 09:28N 36°27' E 015°04'37310.7
2014-Aug-13 22:30N 36°24' E 022°47'2410.8
2014-Aug-13 20:17N 36°26' E 023°17'811.4
2014-Aug-13 19:33N 36°32' E 023°24'1210.8
2014-Aug-13 18:27N 36°40' E 023°35'1010.8
2014-Aug-13 17:33N 36°47' E 023°44'1111.1
2014-Aug-13 16:34N 36°56' E 023°52'1211.4
2014-Aug-13 15:33N 37°05' E 024°00'1111.0
2014-Aug-13 14:33N 37°15' E 024°07'1111.3
2014-Aug-13 13:32N 37°24' E 024°16'1111.5
2014-Aug-13 12:34N 37°34' E 024°23'1111.2
2014-Aug-13 11:34N 37°44' E 024°29'2311.4
2014-Aug-13 09:30N 38°04' E 024°45'1210.7
2014-Aug-13 08:22N 38°10' E 024°58'1211.0
2014-Aug-13 07:18N 38°16' E 025°11'2011.2
2014-Aug-13 05:34N 38°27' E 025°31'1110.9
2014-Aug-13 04:34N 38°33' E 025°43'  
Track history (hours):
 
Tides and Currents Weather Stations Pressure Air Temp Water Temp Dewpoint Dewpoint Depression Visibility Wind Speed Wind Dir Waves Ship Positions

Leonie

Last reported at 2014-Aug-21 03:21 UTC. Time now 2014-Aug-22 09:54 UTC.
Position N 39°09' W 009°50'.

Length 90 m; draft 5.4 m.

Type: Cargo ship. MMSI: 244772000.

Date/timePositionNaut miles runAvg speedWind from/ knotsBaromVisibWave heightAir tempDewpointWater temp
2014-Aug-21 03:21N 39°09' W 009°50'119 9.9
2014-Aug-20 15:25N 37°12' W 009°23'9 9.8
2014-Aug-20 14:31N 37°03' W 009°21'1010.0
2014-Aug-20 13:33N 36°54' W 009°18'10 9.8
2014-Aug-20 12:33N 36°46' W 009°10'1010.1
2014-Aug-20 11:33N 36°42' W 008°58'1010.2
2014-Aug-20 10:33N 36°39' W 008°46'1010.4
2014-Aug-20 09:33N 36°36' W 008°34'1010.2
2014-Aug-20 08:33N 36°33' W 008°22'1110.2
2014-Aug-20 07:28N 36°29' W 008°09'13910.0
2014-Aug-19 17:32N 35°60' W 005°20'6 6.3
2014-Aug-19 16:33N 35°54' W 005°18'0 0.0
2014-Aug-19 15:33N 35°54' W 005°18'0 0.0
2014-Aug-19 14:30N 35°54' W 005°18'1 1.3
2014-Aug-19 13:31N 35°55' W 005°19'0 0.1
2014-Aug-19 12:33N 35°55' W 005°19'0 0.4
2014-Aug-19 11:33N 35°55' W 005°20'0 0.0
2014-Aug-19 10:33N 35°55' W 005°20'0 0.4
2014-Aug-19 09:33N 35°55' W 005°19'20310.0
2014-Aug-18 13:19N 36°26' W 001°11'1111.0
2014-Aug-18 12:18N 36°29' W 000°57'29 9.7
2014-Aug-18 09:18N 36°35' W 000°22'7 9.4
2014-Aug-18 08:32N 36°36' W 000°13'19 9.5
2014-Aug-18 06:30N 36°40' E 000°11'46210.6
2014-Aug-16 11:04N 37°34' E 009°46'510.0
2014-Aug-16 10:34N 37°35' E 009°52'10 9.6
2014-Aug-16 09:29N 37°38' E 010°05'12 9.3
2014-Aug-16 08:13N 37°37' E 010°20'5 7.1
2014-Aug-16 07:34N 37°36' E 010°25'1110.7
2014-Aug-16 06:34N 37°33' E 010°38'10810.7
2014-Aug-15 20:28N 36°58' E 012°46'1010.7
2014-Aug-15 19:34N 36°55' E 012°58'1110.5
2014-Aug-15 18:34N 36°51' E 013°11'1010.4
2014-Aug-15 17:34N 36°48' E 013°23'1110.5
2014-Aug-15 16:34N 36°44' E 013°35'1010.2
2014-Aug-15 15:34N 36°41' E 013°47'1510.3
2014-Aug-15 14:05N 36°37' E 014°05'510.1
2014-Aug-15 13:34N 36°35' E 014°12'1010.3
2014-Aug-15 12:34N 36°32' E 014°24'1010.2
2014-Aug-15 11:34N 36°29' E 014°36'1010.5
2014-Aug-15 10:34N 36°28' E 014°49'1210.7
2014-Aug-15 09:28N 36°27' E 015°04'37310.7
2014-Aug-13 22:30N 36°24' E 022°47'2410.8
2014-Aug-13 20:17N 36°26' E 023°17'811.4
2014-Aug-13 19:33N 36°32' E 023°24'1210.8
2014-Aug-13 18:27N 36°40' E 023°35'1010.8
2014-Aug-13 17:33N 36°47' E 023°44'1111.1
2014-Aug-13 16:34N 36°56' E 023°52'1211.4
2014-Aug-13 15:33N 37°05' E 024°00'1111.0
2014-Aug-13 14:33N 37°15' E 024°07'1111.3
2014-Aug-13 13:32N 37°24' E 024°16'1111.5
2014-Aug-13 12:34N 37°34' E 024°23'1111.2
2014-Aug-13 11:34N 37°44' E 024°29'2311.4
2014-Aug-13 09:30N 38°04' E 024°45'1210.7
2014-Aug-13 08:22N 38°10' E 024°58'1211.0
2014-Aug-13 07:18N 38°16' E 025°11'2011.2
2014-Aug-13 05:34N 38°27' E 025°31'1110.9
2014-Aug-13 04:34N 38°33' E 025°43'  

Dump ship's entire track history